Lakki Marwat Weather



Lakki Marwat's Current Weather

Temprature 32.25o clear sky

clear sky

Rain: 0 %

Min Temprature32.25o
Max Temprature32.25o
Humidity37
Wind Speed2.54 m/h
Sun Rise05:45:05
Sun Set18:53:37
Current Time: 23-Aug-2019 05:17:39
Lat/Lon: 32.61, 70.91




Lakki Marwat's Geo Location



Lakki Marwat's Weather Forecast

Time Overall Temp Min Temp Max Temp Humidity Wind Speed Rain
23-Aug-2019 (Fri)
08:00:00 clear sky 33.710 33.707 33.710 29 0.39 m/h 0 %
11:00:00 clear sky 36.250 36.250 36.250 25 1.26 m/h 0 %
14:00:00 clear sky 38.530 38.530 38.531 22 2.69 m/h 0 %
17:00:00 clear sky 39.310 39.310 39.311 20 3.56 m/h 0 %
20:00:00 clear sky 37.850 37.850 37.850 22 1.99 m/h 0 %
23:00:00 clear sky 36.042 36.042 36.042 29 0.21 m/h 0 %
24-Aug-2019 (Sat)
02:00:00 clear sky 34.131 34.131 34.131 31 1 m/h 0 %
05:00:00 clear sky 33.155 33.155 33.155 31 1.63 m/h 0 %
08:00:00 clear sky 34.157 34.157 34.157 31 3.06 m/h 0 %
11:00:00 clear sky 37.769 37.769 37.769 24 3.76 m/h 0 %
14:00:00 clear sky 40.169 40.169 40.169 18 2.18 m/h 0 %
17:00:00 clear sky 40.723 40.723 40.723 16 4.69 m/h 0 %
20:00:00 clear sky 38.350 38.350 38.350 20 1.5 m/h 0 %
23:00:00 clear sky 36.269 36.269 36.269 25 0.23 m/h 0 %
25-Aug-2019 (Sun)
02:00:00 clear sky 34.831 34.831 34.831 25 1.38 m/h 0 %
05:00:00 clear sky 32.757 32.757 32.757 31 4.16 m/h 0 %
08:00:00 clear sky 34.514 34.514 34.514 33 5.48 m/h 0 %
11:00:00 clear sky 38.016 38.016 38.016 25 4.26 m/h 0 %
14:00:00 clear sky 40.350 40.350 40.350 19 3.4 m/h 0 %
17:00:00 clear sky 41.450 41.450 41.450 15 2.69 m/h 0 %
20:00:00 clear sky 38.881 38.881 38.881 18 2.49 m/h 0 %
23:00:00 clear sky 36.411 36.411 36.411 24 0.65 m/h 0 %
26-Aug-2019 (Mon)
02:00:00 clear sky 33.565 33.565 33.565 36 1.47 m/h 0 %
05:00:00 clear sky 31.950 31.950 31.950 46 5.57 m/h 0 %
08:00:00 clear sky 33.067 33.067 33.067 44 4.8 m/h 0 %
11:00:00 clear sky 36.372 36.372 36.372 36 3.8 m/h 0 %
14:00:00 clear sky 38.984 38.984 38.984 27 3.08 m/h 0 %
17:00:00 clear sky 40.220 40.220 40.220 22 3.39 m/h 0 %
20:00:00 clear sky 37.972 37.972 37.972 27 2.67 m/h 0 %
23:00:00 clear sky 36.714 36.714 36.714 30 1.35 m/h 0 %
27-Aug-2019 (Tue)
02:00:00 clear sky 35.016 35.016 35.016 33 2.92 m/h 0 %
05:00:00 clear sky 32.850 32.850 32.850 44 2.89 m/h 0 %
08:00:00 clear sky 33.935 33.935 33.935 41 1.92 m/h 0 %
11:00:00 clear sky 36.636 36.636 36.636 33 2.45 m/h 0 %
14:00:00 clear sky 39.336 39.336 39.336 26 2.63 m/h 0 %
17:00:00 clear sky 40.465 40.465 40.465 22 3.83 m/h 0 %
20:00:00 clear sky 38.750 38.750 38.750 24 3.15 m/h 0 %
23:00:00 clear sky 37.450 37.450 37.450 28 0.87 m/h 0 %
28-Aug-2019 (Wed)
02:00:00 clear sky 35.357 35.357 35.357 35 2.54 m/h 0 %
05:00:00 clear sky 33.872 33.872 33.872 40 1.07 m/h 0 %

Famous Cities (61)